Time,TemperatureF,DewpointF,PressureIn,WindDirection,WindDirectionDegrees,WindSpeedMPH,WindSpeedGustMPH,Humidity,HourlyPrecipIn,Conditions,Clouds,dailyrainin,SolarRadiationWatts/m^2,SoftwareType,DateUTC
2013-03-21 00:02:00,69.0,57.0,-100.00,East,86,8.0,10.0,65,0.00,,,0.00,0.000000,,2013-03-21 10:02:00,
2013-03-21 00:12:00,69.0,57.0,-100.00,East,86,8.0,10.0,65,0.00,,,0.00,0.000000,,2013-03-21 10:12:00,
2013-03-21 00:22:00,69.0,57.0,-100.00,East,86,8.0,10.0,65,0.00,,,0.00,0.000000,,2013-03-21 10:22:00,
2013-03-21 00:32:00,69.0,57.0,-100.00,East,86,8.0,10.0,65,0.00,,,0.00,0.000000,,2013-03-21 10:32:00,
2013-03-21 01:02:00,68.0,59.0,-100.00,SE,125,7.0,10.0,72,0.00,,,0.00,0.000000,,2013-03-21 11:02:00,
2013-03-21 01:12:00,68.0,59.0,-100.00,SE,125,7.0,10.0,72,0.00,,,0.00,0.000000,,2013-03-21 11:12:00,
2013-03-21 01:22:00,68.0,59.0,-100.00,SE,125,7.0,10.0,72,0.00,,,0.00,0.000000,,2013-03-21 11:22:00,
2013-03-21 01:32:00,68.0,59.0,-100.00,SE,125,7.0,10.0,72,0.00,,,0.00,0.000000,,2013-03-21 11:32:00,
2013-03-21 02:02:00,67.0,57.0,-100.00,East,100,8.0,10.0,71,0.00,,,0.00,0.000000,,2013-03-21 12:02:00,
2013-03-21 02:12:00,67.0,57.0,-100.00,East,100,8.0,10.0,71,0.00,,,0.00,0.000000,,2013-03-21 12:12:00,
2013-03-21 02:22:00,67.0,57.0,-100.00,East,100,8.0,10.0,71,0.00,,,0.00,0.000000,,2013-03-21 12:22:00,
2013-03-21 02:32:00,67.0,57.0,-100.00,East,100,8.0,10.0,71,0.00,,,0.00,0.000000,,2013-03-21 12:32:00,
2013-03-21 03:02:00,67.0,57.0,-100.00,SE,126,7.0,11.0,71,0.00,,,0.00,0.000000,,2013-03-21 13:02:00,
2013-03-21 03:12:00,67.0,57.0,-100.00,SE,126,7.0,11.0,71,0.00,,,0.00,0.000000,,2013-03-21 13:12:00,
2013-03-21 03:22:00,67.0,57.0,-100.00,SE,126,7.0,11.0,71,0.00,,,0.00,0.000000,,2013-03-21 13:22:00,
2013-03-21 03:32:00,67.0,57.0,-100.00,SE,126,7.0,11.0,71,0.00,,,0.00,0.000000,,2013-03-21 13:32:00,
2013-03-21 04:02:00,66.0,55.0,-100.00,SE,136,9.0,12.0,68,0.00,,,0.00,0.000000,,2013-03-21 14:02:00,
2013-03-21 04:12:00,66.0,55.0,-100.00,SE,136,9.0,12.0,68,0.00,,,0.00,0.000000,,2013-03-21 14:12:00,
2013-03-21 04:21:00,66.0,55.0,-100.00,SE,136,9.0,12.0,68,0.00,,,0.00,0.000000,,2013-03-21 14:21:00,
2013-03-21 04:32:00,66.0,55.0,-100.00,SE,136,9.0,12.0,68,0.00,,,0.00,0.000000,,2013-03-21 14:32:00,
2013-03-21 05:03:00,67.0,55.0,-100.00,SE,142,7.0,13.0,66,0.00,,,0.00,0.000000,,2013-03-21 15:03:00,
2013-03-21 05:12:00,67.0,55.0,-100.00,SE,142,7.0,13.0,66,0.00,,,0.00,0.000000,,2013-03-21 15:12:00,
2013-03-21 05:22:00,67.0,55.0,-100.00,SE,142,7.0,13.0,66,0.00,,,0.00,0.000000,,2013-03-21 15:22:00,
2013-03-21 05:32:00,67.0,55.0,-100.00,SE,142,7.0,13.0,66,0.00,,,0.00,0.000000,,2013-03-21 15:32:00,
2013-03-21 06:03:00,67.0,55.0,-100.00,SE,134,8.0,12.0,65,0.00,,,0.00,0.000000,,2013-03-21 16:03:00,
2013-03-21 06:12:00,67.0,55.0,-100.00,SE,134,8.0,12.0,65,0.00,,,0.00,0.000000,,2013-03-21 16:12:00,
2013-03-21 06:22:00,67.0,55.0,-100.00,SE,134,8.0,12.0,65,0.00,,,0.00,0.000000,,2013-03-21 16:22:00,
2013-03-21 06:32:00,67.0,55.0,-100.00,SE,134,8.0,12.0,65,0.00,,,0.00,0.000000,,2013-03-21 16:32:00,
2013-03-21 07:02:00,65.0,54.0,-100.00,NE,53,3.0,11.0,67,0.00,,,0.00,1.000000,,2013-03-21 17:02:00,
2013-03-21 07:12:00,65.0,54.0,-100.00,NE,53,3.0,11.0,67,0.00,,,0.00,1.000000,,2013-03-21 17:12:00,
2013-03-21 07:23:00,65.0,54.0,-100.00,NE,53,3.0,11.0,67,0.00,,,0.00,1.000000,,2013-03-21 17:23:00,
2013-03-21 07:32:00,65.0,54.0,-100.00,NE,53,3.0,11.0,67,0.00,,,0.00,1.000000,,2013-03-21 17:32:00,
2013-03-21 08:02:00,72.0,60.0,-100.00,ESE,116,4.0,11.0,65,0.00,,,0.00,99.000000,,2013-03-21 18:02:00,
2013-03-21 08:12:00,72.0,60.0,-100.00,ESE,116,4.0,11.0,65,0.00,,,0.00,99.000000,,2013-03-21 18:12:00,
2013-03-21 08:22:00,72.0,60.0,-100.00,ESE,116,4.0,11.0,65,0.00,,,0.00,99.000000,,2013-03-21 18:22:00,
2013-03-21 08:32:00,72.0,60.0,-100.00,ESE,116,4.0,11.0,65,0.00,,,0.00,99.000000,,2013-03-21 18:32:00,
2013-03-21 09:02:00,77.0,58.0,-100.00,NNW,346,3.0,6.0,52,0.00,,,0.00,368.000000,,2013-03-21 19:02:00,
2013-03-21 09:12:00,77.0,58.0,-100.00,NNW,346,3.0,6.0,52,0.00,,,0.00,368.000000,,2013-03-21 19:12:00,
2013-03-21 09:22:00,77.0,58.0,-100.00,NNW,346,3.0,6.0,52,0.00,,,0.00,368.000000,,2013-03-21 19:22:00,
2013-03-21 09:31:00,77.0,58.0,-100.00,NNW,346,3.0,6.0,52,0.00,,,0.00,368.000000,,2013-03-21 19:31:00,
2013-03-21 10:02:00,78.0,59.0,-100.00,West,272,7.0,12.0,52,0.00,,,0.00,605.000000,,2013-03-21 20:02:00,
2013-03-21 10:12:00,78.0,59.0,-100.00,West,272,7.0,12.0,52,0.00,,,0.00,605.000000,,2013-03-21 20:12:00,
2013-03-21 10:22:00,78.0,59.0,-100.00,West,272,7.0,12.0,52,0.00,,,0.00,605.000000,,2013-03-21 20:22:00,
2013-03-21 10:32:00,78.0,59.0,-100.00,West,272,7.0,12.0,52,0.00,,,0.00,605.000000,,2013-03-21 20:32:00,
2013-03-21 11:02:00,79.0,61.0,-100.00,NNW,332,7.0,12.0,54,0.00,,,0.00,823.000000,,2013-03-21 21:02:00,
2013-03-21 11:12:00,79.0,61.0,-100.00,NNW,332,7.0,12.0,54,0.00,,,0.00,823.000000,,2013-03-21 21:12:00,
2013-03-21 11:22:00,79.0,61.0,-100.00,NNW,332,7.0,12.0,54,0.00,,,0.00,823.000000,,2013-03-21 21:22:00,
2013-03-21 11:32:00,79.0,61.0,-100.00,NNW,332,7.0,12.0,54,0.00,,,0.00,823.000000,,2013-03-21 21:32:00,
2013-03-21 12:02:00,78.0,65.0,-100.00,West,271,12.0,18.0,65,0.00,,,0.00,713.000000,,2013-03-21 22:02:00,
2013-03-21 12:12:00,78.0,65.0,-100.00,West,271,12.0,18.0,65,0.00,,,0.00,713.000000,,2013-03-21 22:12:00,
2013-03-21 12:23:00,78.0,65.0,-100.00,West,271,12.0,18.0,65,0.00,,,0.00,713.000000,,2013-03-21 22:23:00,
2013-03-21 12:33:00,78.0,65.0,-100.00,West,271,12.0,18.0,65,0.00,,,0.00,713.000000,,2013-03-21 22:33:00,
2013-03-21 13:02:00,79.0,66.0,-100.00,WNW,285,10.0,16.0,65,0.00,,,0.00,922.000000,,2013-03-21 23:02:00,
2013-03-21 13:12:00,79.0,66.0,-100.00,WNW,285,10.0,16.0,65,0.00,,,0.00,922.000000,,2013-03-21 23:12:00,
2013-03-21 13:21:00,79.0,66.0,-100.00,WNW,285,10.0,16.0,65,0.00,,,0.00,922.000000,,2013-03-21 23:21:00,
2013-03-21 13:32:00,79.0,66.0,-100.00,WNW,285,10.0,16.0,65,0.00,,,0.00,922.000000,,2013-03-21 23:32:00,
2013-03-21 14:02:00,80.0,65.0,-100.00,West,275,10.0,16.0,60,0.00,,,0.00,883.000000,,2013-03-22 00:02:00,
2013-03-21 14:12:00,80.0,65.0,-100.00,West,275,10.0,16.0,60,0.00,,,0.00,883.000000,,2013-03-22 00:12:00,
2013-03-21 14:22:00,80.0,65.0,-100.00,West,275,10.0,16.0,60,0.00,,,0.00,883.000000,,2013-03-22 00:22:00,
2013-03-21 14:31:00,80.0,65.0,-100.00,West,275,10.0,16.0,60,0.00,,,0.00,883.000000,,2013-03-22 00:31:00,
2013-03-21 15:02:00,80.0,64.0,-100.00,West,271,11.0,17.0,59,0.00,,,0.00,873.000000,,2013-03-22 01:02:00,
2013-03-21 15:12:00,80.0,64.0,-100.00,West,271,11.0,17.0,59,0.00,,,0.00,873.000000,,2013-03-22 01:12:00,
2013-03-21 15:22:00,80.0,64.0,-100.00,West,271,11.0,17.0,59,0.00,,,0.00,873.000000,,2013-03-22 01:22:00,
2013-03-21 15:32:00,80.0,64.0,-100.00,West,271,11.0,17.0,59,0.00,,,0.00,873.000000,,2013-03-22 01:32:00,
2013-03-21 16:02:00,79.0,60.0,-100.00,West,268,11.0,17.0,52,0.00,,,0.00,733.000000,,2013-03-22 02:02:00,
2013-03-21 16:12:00,79.0,60.0,-100.00,West,268,11.0,17.0,52,0.00,,,0.00,733.000000,,2013-03-22 02:12:00,
2013-03-21 16:22:00,79.0,60.0,-100.00,West,268,11.0,17.0,52,0.00,,,0.00,733.000000,,2013-03-22 02:22:00,
2013-03-21 16:32:00,79.0,60.0,-100.00,West,268,11.0,17.0,52,0.00,,,0.00,733.000000,,2013-03-22 02:32:00,
2013-03-21 17:02:00,79.0,61.0,-100.00,West,268,10.0,14.0,55,0.00,,,0.00,548.000000,,2013-03-22 03:02:00,
2013-03-21 17:12:00,79.0,61.0,-100.00,West,268,10.0,14.0,55,0.00,,,0.00,548.000000,,2013-03-22 03:12:00,
2013-03-21 17:21:00,79.0,61.0,-100.00,West,268,10.0,14.0,55,0.00,,,0.00,548.000000,,2013-03-22 03:21:00,
2013-03-21 17:33:00,79.0,61.0,-100.00,West,268,10.0,14.0,55,0.00,,,0.00,548.000000,,2013-03-22 03:33:00,
2013-03-21 18:03:00,77.0,63.0,-100.00,WSW,255,5.0,18.0,62,0.00,,,0.00,275.000000,,2013-03-22 04:03:00,
2013-03-21 18:12:00,77.0,63.0,-100.00,WSW,255,5.0,18.0,62,0.00,,,0.00,275.000000,,2013-03-22 04:12:00,
2013-03-21 18:22:00,77.0,63.0,-100.00,WSW,255,5.0,18.0,62,0.00,,,0.00,275.000000,,2013-03-22 04:22:00,
2013-03-21 18:32:00,77.0,63.0,-100.00,WSW,255,5.0,18.0,62,0.00,,,0.00,275.000000,,2013-03-22 04:32:00,
2013-03-21 19:02:00,74.0,62.0,-100.00,WNW,294,4.0,9.0,67,0.00,,,0.00,69.000000,,2013-03-22 05:02:00,
2013-03-21 19:12:00,74.0,62.0,-100.00,WNW,294,4.0,9.0,67,0.00,,,0.00,69.000000,,2013-03-22 05:12:00,
2013-03-21 19:22:00,74.0,62.0,-100.00,WNW,294,4.0,9.0,67,0.00,,,0.00,69.000000,,2013-03-22 05:22:00,
2013-03-21 19:32:00,74.0,62.0,-100.00,WNW,294,4.0,9.0,67,0.00,,,0.00,69.000000,,2013-03-22 05:32:00,
2013-03-21 20:02:00,73.0,63.0,-100.00,ENE,72,3.0,4.0,72,0.00,,,0.00,0.000000,,2013-03-22 06:02:00,
2013-03-21 20:12:00,73.0,63.0,-100.00,ENE,72,3.0,4.0,72,0.00,,,0.00,0.000000,,2013-03-22 06:12:00,
2013-03-21 20:22:00,73.0,63.0,-100.00,ENE,72,3.0,4.0,72,0.00,,,0.00,0.000000,,2013-03-22 06:22:00,
2013-03-21 20:32:00,73.0,63.0,-100.00,ENE,72,3.0,4.0,72,0.00,,,0.00,0.000000,,2013-03-22 06:32:00,
2013-03-21 21:02:00,72.0,67.0,-100.00,WNW,284,3.0,5.0,83,0.00,,,0.00,0.000000,,2013-03-22 07:02:00,
2013-03-21 21:12:00,72.0,67.0,-100.00,WNW,284,3.0,5.0,83,0.00,,,0.00,0.000000,,2013-03-22 07:12:00,
2013-03-21 21:22:00,72.0,67.0,-100.00,WNW,284,3.0,5.0,83,0.00,,,0.00,0.000000,,2013-03-22 07:22:00,
2013-03-21 21:32:00,72.0,67.0,-100.00,WNW,284,3.0,5.0,83,0.00,,,0.00,0.000000,,2013-03-22 07:32:00,
2013-03-21 22:02:00,71.0,66.0,-100.00,SW,220,4.0,7.0,84,0.00,,,0.00,0.000000,,2013-03-22 08:02:00,
2013-03-21 22:12:00,71.0,66.0,-100.00,SW,220,4.0,7.0,84,0.00,,,0.00,0.000000,,2013-03-22 08:12:00,
2013-03-21 22:22:00,71.0,66.0,-100.00,SW,220,4.0,7.0,84,0.00,,,0.00,0.000000,,2013-03-22 08:22:00,
2013-03-21 22:32:00,71.0,66.0,-100.00,SW,220,4.0,7.0,84,0.00,,,0.00,0.000000,,2013-03-22 08:32:00,
2013-03-21 23:02:00,68.0,59.0,-100.00,SE,133,5.0,8.0,72,0.00,,,0.00,0.000000,,2013-03-22 09:02:00,
2013-03-21 23:12:00,68.0,59.0,-100.00,SE,133,5.0,8.0,72,0.00,,,0.00,0.000000,,2013-03-22 09:12:00,
2013-03-21 23:22:00,68.0,59.0,-100.00,SE,133,5.0,8.0,72,0.00,,,0.00,0.000000,,2013-03-22 09:22:00,
2013-03-21 23:32:00,68.0,59.0,-100.00,SE,133,5.0,8.0,72,0.00,,,0.00,0.000000,,2013-03-22 09:32:00,